createdAt,value
2018-02-07T00:00:22.660Z,1.63
2018-02-07T00:02:51.042Z,0.70
2018-02-07T00:05:19.587Z,0.80
2018-02-07T00:07:47.900Z,1.05
2018-02-07T00:10:16.951Z,4.20
2018-02-07T00:12:45.989Z,1.55
2018-02-07T00:15:15.386Z,2.10
2018-02-07T00:17:43.685Z,0.60
2018-02-07T00:20:12.723Z,0.87
2018-02-07T00:22:41.061Z,2.78
2018-02-07T00:25:09.586Z,2.15
2018-02-07T00:27:38.139Z,0.70
2018-02-07T00:30:06.432Z,1.63
2018-02-07T00:32:34.711Z,0.85
2018-02-07T00:35:03.063Z,0.62
2018-02-07T00:37:31.361Z,0.60
2018-02-07T00:39:59.842Z,0.70
2018-02-07T00:42:28.146Z,0.60
2018-02-07T00:44:56.717Z,0.73
2018-02-07T00:47:25.067Z,1.12
2018-02-07T00:49:53.376Z,0.60
2018-02-07T00:52:21.696Z,0.70
2018-02-07T00:54:50.084Z,0.60
2018-02-07T00:57:19.186Z,0.65
2018-02-07T00:59:48.268Z,0.65
2018-02-07T01:02:16.590Z,2.37
2018-02-07T01:04:45.564Z,0.73
2018-02-07T01:07:14.902Z,2.25
2018-02-07T01:09:43.302Z,1.90
2018-02-07T01:12:11.595Z,0.80
2018-02-07T01:14:40.084Z,5.62
2018-02-07T01:17:08.436Z,0.60
2018-02-07T01:19:37.222Z,0.62
2018-02-07T01:22:05.523Z,3.33
2018-02-07T01:24:34.486Z,0.70
2018-02-07T01:27:22.172Z,0.60
2018-02-07T01:29:51.653Z,0.70
2018-02-07T01:32:20.736Z,0.80
2018-02-07T01:34:49.011Z,0.65
2018-02-07T01:37:17.365Z,3.35
2018-02-07T01:39:45.735Z,0.68
2018-02-07T01:42:14.293Z,0.75
2018-02-07T01:44:42.730Z,0.70
2018-02-07T01:47:11.829Z,0.60
2018-02-07T01:49:40.167Z,0.70
2018-02-07T01:52:08.461Z,0.60
2018-02-07T01:54:36.780Z,0.70
2018-02-07T01:57:05.180Z,0.70
2018-02-07T01:59:33.748Z,2.85
2018-02-07T02:02:02.039Z,0.70
2018-02-07T02:04:30.328Z,1.95
2018-02-07T02:06:59.420Z,0.60
2018-02-07T02:09:27.697Z,3.08
2018-02-07T02:11:56.347Z,0.60
2018-02-07T02:14:24.687Z,0.70
2018-02-07T02:16:53.379Z,0.60
2018-02-07T02:19:22.001Z,0.90
2018-02-07T02:21:50.405Z,0.70
2018-02-07T02:24:19.016Z,0.80
2018-02-07T02:26:48.098Z,1.93
2018-02-07T02:29:16.395Z,0.70
2018-02-07T02:31:44.714Z,4.60
2018-02-07T02:34:13.014Z,0.90
2018-02-07T02:36:41.490Z,0.70
2018-02-07T02:39:09.763Z,0.60
2018-02-07T02:41:38.358Z,2.30
2018-02-07T02:44:06.709Z,2.95
2018-02-07T02:46:35.094Z,0.70
2018-02-07T02:49:04.030Z,0.70
2018-02-07T02:51:33.074Z,0.60
2018-02-07T02:54:01.396Z,0.70
2018-02-07T02:56:30.769Z,0.60
2018-02-07T02:58:59.342Z,1.27
2018-02-07T03:01:27.836Z,0.80
2018-02-07T03:03:56.144Z,3.97
2018-02-07T03:06:24.530Z,0.60
2018-02-07T03:08:53.585Z,0.60
2018-02-07T03:14:15.950Z,2.05
2018-02-07T03:16:44.557Z,2.47
2018-02-07T03:19:12.893Z,0.70
2018-02-07T03:21:41.304Z,0.63
2018-02-07T03:24:09.607Z,0.70
2018-02-07T03:26:37.935Z,2.90
2018-02-07T03:29:06.416Z,0.80
2018-02-07T03:31:34.754Z,1.55
2018-02-07T03:34:03.813Z,0.70
2018-02-07T03:36:32.225Z,0.70
2018-02-07T03:39:00.966Z,0.65
2018-02-07T03:41:29.553Z,1.13
2018-02-07T03:43:57.829Z,1.30
2018-02-07T03:46:26.324Z,0.60
2018-02-07T03:48:55.021Z,3.05
2018-02-07T03:51:23.372Z,0.77
2018-02-07T03:53:51.654Z,0.60
2018-02-07T03:56:20.345Z,0.60
2018-02-07T03:58:48.660Z,2.72
2018-02-07T04:01:17.348Z,0.70
2018-02-07T04:03:45.729Z,0.70
2018-02-07T04:06:14.093Z,0.80
2018-02-07T04:08:42.691Z,0.70
2018-02-07T04:11:11.325Z,0.60
2018-02-07T04:13:39.700Z,0.68
2018-02-07T04:16:08.066Z,0.80
2018-02-07T04:18:37.234Z,0.60
2018-02-07T04:21:05.797Z,4.10
2018-02-07T04:23:34.097Z,1.15
2018-02-07T04:26:02.881Z,0.70
2018-02-07T04:28:31.552Z,0.60
2018-02-07T04:30:59.885Z,2.15
2018-02-07T04:33:28.205Z,0.73
2018-02-07T04:35:56.780Z,0.80
2018-02-07T04:38:25.102Z,0.70
2018-02-07T04:40:53.406Z,0.83
2018-02-07T04:43:21.765Z,0.60
2018-02-07T04:45:50.063Z,0.70
2018-02-07T04:48:18.497Z,0.68
2018-02-07T04:50:46.874Z,0.60
2018-02-07T04:53:15.692Z,3.60
2018-02-07T04:55:44.198Z,0.67
2018-02-07T04:58:12.682Z,0.70
2018-02-07T05:00:41.791Z,0.60
2018-02-07T05:03:10.078Z,1.92
2018-02-07T05:05:38.490Z,0.70
2018-02-07T05:08:06.784Z,0.60
2018-02-07T05:10:35.513Z,0.90
2018-02-07T05:13:03.842Z,0.70
2018-02-07T05:15:32.166Z,0.90
2018-02-07T05:18:00.705Z,0.70
2018-02-07T05:20:29.270Z,0.70
2018-02-07T05:22:57.582Z,0.60
2018-02-07T05:25:26.631Z,4.07
2018-02-07T05:27:55.232Z,0.68
2018-02-07T05:30:23.584Z,0.90
2018-02-07T05:32:51.932Z,0.60
2018-02-07T05:35:21.348Z,1.77
2018-02-07T05:37:50.453Z,0.70
2018-02-07T05:40:18.802Z,0.97
2018-02-07T05:42:47.865Z,1.42
2018-02-07T05:45:16.337Z,0.70
2018-02-07T05:47:44.731Z,0.68
2018-02-07T05:50:13.426Z,0.80
2018-02-07T05:52:42.683Z,0.70
2018-02-07T05:55:11.028Z,0.80
2018-02-07T05:57:39.667Z,5.25
2018-02-07T06:00:08.001Z,0.80
2018-02-07T06:02:37.141Z,0.70
2018-02-07T06:05:05.859Z,0.60
2018-02-07T06:07:34.209Z,0.75
2018-02-07T06:10:02.633Z,0.82
2018-02-07T06:12:31.262Z,0.98
2018-02-07T06:14:59.592Z,2.55
2018-02-07T06:17:28.535Z,1.95
2018-02-07T06:19:56.923Z,0.85
2018-02-07T06:22:25.234Z,0.70
2018-02-07T06:24:53.581Z,0.60
2018-02-07T06:27:21.906Z,0.90
2018-02-07T06:29:54.729Z,0.95
2018-02-07T06:32:23.735Z,1.23
2018-02-07T06:34:52.339Z,2.87
2018-02-07T06:37:20.604Z,2.92
2018-02-07T06:39:48.913Z,1.48
2018-02-07T06:42:17.434Z,0.80
2018-02-07T06:44:45.983Z,0.80
2018-02-07T06:47:14.269Z,1.17
2018-02-07T06:49:42.541Z,1.77
2018-02-07T06:52:11.105Z,2.17
2018-02-07T06:54:39.376Z,0.70
2018-02-07T06:57:08.578Z,0.80
2018-02-07T06:59:36.881Z,1.10
2018-02-07T07:02:05.167Z,3.53
2018-02-07T07:04:34.293Z,1.73
2018-02-07T07:07:03.317Z,0.70
2018-02-07T07:09:31.621Z,0.80
2018-02-07T07:11:59.901Z,0.60
2018-02-07T07:14:28.448Z,0.70
2018-02-07T07:16:56.729Z,0.80
2018-02-07T07:19:25.007Z,2.75
2018-02-07T07:21:53.297Z,0.80
2018-02-07T07:24:21.565Z,2.62
2018-02-07T07:26:49.869Z,2.33
2018-02-07T07:29:18.139Z,1.65
2018-02-07T07:31:46.699Z,1.00
2018-02-07T07:34:14.981Z,3.45
2018-02-07T07:36:43.257Z,0.70
2018-02-07T07:39:11.555Z,0.82
2018-02-07T07:41:39.843Z,0.70
2018-02-07T07:44:08.188Z,1.75
2018-02-07T07:46:37.213Z,1.33
2018-02-07T07:49:05.516Z,0.70
2018-02-07T07:51:33.831Z,0.80
2018-02-07T07:54:02.389Z,0.82
2018-02-07T07:56:31.432Z,3.20
2018-02-07T07:58:59.730Z,3.00
2018-02-07T08:01:28.016Z,0.70
2018-02-07T08:03:57.085Z,0.70
2018-02-07T08:06:25.372Z,3.03
2018-02-07T08:08:53.663Z,0.98
2018-02-07T08:11:21.947Z,0.70
2018-02-07T08:13:50.217Z,2.70
2018-02-07T08:16:18.788Z,0.60
2018-02-07T08:18:47.046Z,1.42
2018-02-07T08:21:15.314Z,0.60
2018-02-07T08:23:43.607Z,0.70
2018-02-07T08:26:11.878Z,0.90
2018-02-07T08:28:40.183Z,2.03
2018-02-07T08:31:08.458Z,1.97
2018-02-07T08:33:36.733Z,0.70
2018-02-07T08:36:05.012Z,1.27
2018-02-07T08:38:33.295Z,4.95
2018-02-07T08:41:01.590Z,2.23
2018-02-07T08:43:30.648Z,1.50
2018-02-07T08:45:58.917Z,0.70
2018-02-07T08:48:27.190Z,1.80
2018-02-07T08:50:55.728Z,1.43
2018-02-07T08:53:24.804Z,1.40
2018-02-07T08:55:53.070Z,1.90
2018-02-07T08:58:21.622Z,3.72
2018-02-07T09:00:49.921Z,2.57
2018-02-07T09:03:18.236Z,1.33
2018-02-07T09:05:46.464Z,0.80
2018-02-07T09:08:15.070Z,1.35
2018-02-07T09:10:43.366Z,4.93
2018-02-07T09:13:11.625Z,0.70
2018-02-07T09:15:39.952Z,0.70
2018-02-07T09:18:08.238Z,0.70
2018-02-07T09:20:37.296Z,0.80
2018-02-07T09:23:05.571Z,0.70
2018-02-07T09:25:34.103Z,0.70
2018-02-07T09:28:02.374Z,0.70
2018-02-07T09:30:30.634Z,0.70
2018-02-07T09:32:59.741Z,3.45
2018-02-07T09:35:28.949Z,4.20
2018-02-07T09:37:57.244Z,0.60
2018-02-07T09:40:25.582Z,0.70
2018-02-07T09:42:53.867Z,3.92
2018-02-07T09:45:22.898Z,0.90
2018-02-07T09:47:51.466Z,0.60
2018-02-07T09:50:19.719Z,0.70
2018-02-07T09:52:49.565Z,0.70
2018-02-07T09:55:18.605Z,10.57
2018-02-07T09:57:46.904Z,10.88
2018-02-07T10:00:15.968Z,13.07
2018-02-07T10:02:44.945Z,13.82
2018-02-07T10:05:13.483Z,11.53
2018-02-07T10:07:41.790Z,15.77
2018-02-07T10:10:10.065Z,18.43
2018-02-07T10:12:38.451Z,16.35
2018-02-07T10:15:06.717Z,21.13
2018-02-07T10:17:35.035Z,15.88
2018-02-07T10:20:03.342Z,17.67
2018-02-07T10:22:32.695Z,21.85
2018-02-07T10:25:01.000Z,20.20
2018-02-07T10:27:29.310Z,19.90
2018-02-07T10:29:58.392Z,20.10
2018-02-07T10:32:26.662Z,18.60
2018-02-07T10:34:54.995Z,19.90
2018-02-07T10:37:23.280Z,22.93
2018-02-07T10:39:51.586Z,21.23
2018-02-07T10:42:19.873Z,18.70
2018-02-07T10:44:48.437Z,19.97
2018-02-07T10:47:16.710Z,21.60
2018-02-07T10:49:45.000Z,22.13
2018-02-07T10:52:13.348Z,19.80
2018-02-07T10:54:41.649Z,22.30
2018-02-07T10:57:09.962Z,20.57
2018-02-07T10:59:38.241Z,2.30
2018-02-07T11:02:06.569Z,0.70
2018-02-07T11:04:34.848Z,0.70
2018-02-07T11:07:03.428Z,2.40
2018-02-07T11:09:31.682Z,2.30
2018-02-07T11:11:59.976Z,0.63
2018-02-07T11:14:28.283Z,0.70
2018-02-07T11:16:56.560Z,2.40
2018-02-07T11:19:24.841Z,2.20
2018-02-07T11:21:53.107Z,2.77
2018-02-07T11:24:21.670Z,0.60
2018-02-07T11:26:50.825Z,1.23
2018-02-07T11:29:19.080Z,1.53
2018-02-07T11:31:47.387Z,1.37
2018-02-07T11:34:16.460Z,1.80
2018-02-07T11:36:44.917Z,0.93
2018-02-07T11:39:13.194Z,0.70
2018-02-07T11:41:41.760Z,4.27
2018-02-07T11:44:10.030Z,0.80
2018-02-07T11:46:38.306Z,1.00
2018-02-07T11:49:06.605Z,1.27
2018-02-07T11:51:34.859Z,1.63
2018-02-07T11:54:03.171Z,2.20
2018-02-07T11:56:31.477Z,0.80
2018-02-07T11:58:59.787Z,0.80
2018-02-07T12:01:28.824Z,16.70
2018-02-07T12:03:57.394Z,20.17
2018-02-07T12:06:25.687Z,20.00
2018-02-07T12:08:54.811Z,19.93
2018-02-07T12:11:23.117Z,22.90
2018-02-07T12:13:51.401Z,23.53
2018-02-07T12:16:19.729Z,21.93
2018-02-07T12:18:48.025Z,22.50
2018-02-07T12:21:16.320Z,23.23
2018-02-07T12:23:45.372Z,27.43
2018-02-07T12:26:13.694Z,24.50
2018-02-07T12:28:42.760Z,24.83
2018-02-07T12:31:11.079Z,23.80
2018-02-07T12:33:40.160Z,25.10
2018-02-07T12:36:09.217Z,25.70
2018-02-07T12:38:37.546Z,26.10
2018-02-07T12:41:06.586Z,24.97
2018-02-07T12:43:35.187Z,25.97
2018-02-07T12:46:03.450Z,29.70
2018-02-07T12:48:31.769Z,25.70
2018-02-07T12:51:00.882Z,28.40
2018-02-07T12:53:29.922Z,25.70
2018-02-07T12:55:58.238Z,25.50
2018-02-07T12:58:27.565Z,24.70
2018-02-07T13:00:55.913Z,24.33
2018-02-07T13:03:24.188Z,29.13
2018-02-07T13:05:52.498Z,30.13
2018-02-07T13:08:20.793Z,27.87
2018-02-07T13:10:49.362Z,24.80
2018-02-07T13:13:18.400Z,23.37
2018-02-07T13:15:46.705Z,24.53
2018-02-07T13:18:15.922Z,27.83
2018-02-07T13:20:44.227Z,23.70
2018-02-07T13:23:12.542Z,25.90
2018-02-07T13:25:40.836Z,26.47
2018-02-07T13:28:09.392Z,27.17
2018-02-07T13:30:37.683Z,25.20
2018-02-07T13:33:05.958Z,26.10
2018-02-07T13:35:34.282Z,25.27
2018-02-07T13:38:03.338Z,26.83
2018-02-07T13:40:31.641Z,23.83
2018-02-07T13:43:00.686Z,22.57
2018-02-07T13:45:28.995Z,24.83
2018-02-07T13:47:57.266Z,24.93
2018-02-07T13:50:25.860Z,26.87
2018-02-07T13:52:54.193Z,25.30
2018-02-07T14:13:26.782Z,24.00
2018-02-07T14:15:55.094Z,22.97
2018-02-07T14:18:23.674Z,24.93
2018-02-07T14:20:51.974Z,25.30
2018-02-07T14:23:20.273Z,24.90
2018-02-07T14:25:49.462Z,26.87
2018-02-07T14:28:17.790Z,25.10
2018-02-07T14:33:46.546Z,23.90
2018-02-07T14:36:14.869Z,22.77
2018-02-07T14:38:43.184Z,27.90
2018-02-07T14:41:11.741Z,21.90
2018-02-07T14:43:40.017Z,27.10
2018-02-07T14:46:08.319Z,25.13
2018-02-07T14:48:36.669Z,26.50
2018-02-07T14:51:05.691Z,24.60
2018-02-07T14:53:33.996Z,25.73
2018-02-07T14:56:03.470Z,29.80
2018-02-07T14:58:31.773Z,23.80
2018-02-07T15:01:00.090Z,25.60
2018-02-07T15:03:29.124Z,23.70
2018-02-07T15:05:57.439Z,23.60
2018-02-07T15:08:25.726Z,23.33
2018-02-07T15:10:54.066Z,29.80
2018-02-07T15:13:22.357Z,23.87
2018-02-07T15:15:50.658Z,23.07
2018-02-07T15:18:19.743Z,25.07
2018-02-07T15:20:48.319Z,23.60
2018-02-07T15:23:16.638Z,23.63
2018-02-07T15:25:45.678Z,24.60
2018-02-07T15:28:14.677Z,23.77
2018-02-07T15:30:42.961Z,23.70
2018-02-07T15:33:11.277Z,26.87
2018-02-07T15:35:39.598Z,23.53
2018-02-07T15:38:08.199Z,27.57
2018-02-07T15:40:36.532Z,29.47
2018-02-07T15:43:04.814Z,26.90
2018-02-07T15:45:36.031Z,25.20
2018-02-07T15:48:04.310Z,24.67
2018-02-07T15:50:32.629Z,27.50
2018-02-07T15:53:00.898Z,24.87
2018-02-07T15:55:29.464Z,24.97
2018-02-07T15:57:58.525Z,25.50
2018-02-07T16:00:26.818Z,29.60
2018-02-07T16:02:55.128Z,28.77
2018-02-07T16:05:24.848Z,30.27
2018-02-07T16:07:53.421Z,29.40
2018-02-07T16:10:22.471Z,25.50
2018-02-07T16:12:50.760Z,23.23
2018-02-07T16:15:19.068Z,25.80
2018-02-07T16:17:48.125Z,27.67
2018-02-07T16:20:16.467Z,25.10
2018-02-07T16:22:45.166Z,25.90
2018-02-07T16:25:13.485Z,22.80
2018-02-07T16:27:42.543Z,24.20
2018-02-07T16:30:11.142Z,25.27
2018-02-07T16:32:39.441Z,26.80
2018-02-07T16:35:07.745Z,25.83
2018-02-07T16:37:36.793Z,31.57
2018-02-07T16:40:05.067Z,30.27
2018-02-07T16:42:33.395Z,28.97
2018-02-07T16:45:02.565Z,25.60
2018-02-07T16:47:31.149Z,23.00
2018-02-07T16:49:59.453Z,23.80
2018-02-07T16:52:27.843Z,22.50
2018-02-07T16:54:56.139Z,24.10
2018-02-07T16:57:24.459Z,27.97
2018-02-07T16:59:53.618Z,27.93
2018-02-07T17:02:21.928Z,25.77
2018-02-07T17:04:50.593Z,27.23
2018-02-07T17:07:18.926Z,24.12
2018-02-07T17:09:47.213Z,29.30
2018-02-07T17:12:15.634Z,25.93
2018-02-07T17:14:43.916Z,1.73
2018-02-07T17:17:12.246Z,0.70
2018-02-07T17:19:41.308Z,0.90
2018-02-07T17:22:09.642Z,0.70
2018-02-07T17:24:39.489Z,1.40
2018-02-07T17:27:08.086Z,1.20
2018-02-07T17:29:36.381Z,0.60
2018-02-07T17:32:04.727Z,0.90
2018-02-07T17:34:33.054Z,0.70
2018-02-07T17:37:01.371Z,0.60
2018-02-07T17:39:29.689Z,0.70
2018-02-07T17:41:58.018Z,5.28
2018-02-07T17:44:27.371Z,0.65
2018-02-07T17:46:55.687Z,2.10
2018-02-07T17:49:24.735Z,5.72
2018-02-07T17:51:53.043Z,3.15
2018-02-07T17:54:22.142Z,2.93
2018-02-07T17:56:50.458Z,1.93
2018-02-07T17:59:18.773Z,1.65
2018-02-07T18:01:47.093Z,7.85
2018-02-07T18:04:16.185Z,3.35
2018-02-07T18:06:44.742Z,4.70
2018-02-07T18:09:13.016Z,3.75
2018-02-07T18:11:41.274Z,1.93
2018-02-07T18:14:09.574Z,5.22
2018-02-07T18:16:37.890Z,0.80
2018-02-07T18:19:06.204Z,0.90
2018-02-07T18:21:34.515Z,1.93
2018-02-07T18:24:02.818Z,2.28
2018-02-07T18:26:31.867Z,0.80
2018-02-07T18:29:00.440Z,1.02
2018-02-07T18:31:28.714Z,1.63
2018-02-07T18:33:57.037Z,0.90
2018-02-07T18:36:25.596Z,1.10
2018-02-07T18:38:53.922Z,0.80
2018-02-07T18:41:22.974Z,1.05
2018-02-07T18:43:51.296Z,0.70
2018-02-07T18:46:20.380Z,8.83
2018-02-07T18:48:49.475Z,0.70
2018-02-07T18:51:17.749Z,0.60
2018-02-07T18:53:46.918Z,1.52
2018-02-07T18:56:15.208Z,1.35
2018-02-07T18:58:43.786Z,0.70
2018-02-07T19:01:12.096Z,3.28
2018-02-07T19:03:41.140Z,0.60
2018-02-07T19:06:09.447Z,0.90
2018-02-07T19:08:37.763Z,2.05
2018-02-07T19:11:06.835Z,2.05
2018-02-07T19:13:36.002Z,1.27
2018-02-07T19:16:04.938Z,0.80
2018-02-07T19:18:34.043Z,6.55
2018-02-07T19:21:03.407Z,0.87
2018-02-07T19:23:31.755Z,0.60
2018-02-07T19:26:00.657Z,0.75
2018-02-07T19:28:28.987Z,4.12
2018-02-07T19:30:57.329Z,0.60
2018-02-07T19:33:25.621Z,3.65
2018-02-07T19:35:53.905Z,0.70
2018-02-07T19:38:23.295Z,0.62
2018-02-07T19:40:52.477Z,3.33
2018-02-07T19:43:20.785Z,1.77
2018-02-07T19:45:49.165Z,0.73
2018-02-07T19:48:18.909Z,0.90
2018-02-07T19:50:47.381Z,1.62
2018-02-07T19:53:15.734Z,0.70
2018-02-07T19:55:44.058Z,2.03
2018-02-07T19:58:12.425Z,1.23
2018-02-07T20:00:41.086Z,1.20
2018-02-07T20:03:10.714Z,0.70
2018-02-07T20:05:39.120Z,0.60
2018-02-07T20:08:07.526Z,0.80
2018-02-07T20:10:36.765Z,1.67
2018-02-07T20:13:05.088Z,7.55
2018-02-07T20:15:33.389Z,1.17
2018-02-07T20:18:01.721Z,0.70
2018-02-07T20:20:30.144Z,0.93
2018-02-07T20:22:58.736Z,1.25
2018-02-07T20:25:27.041Z,0.80
2018-02-07T20:27:55.391Z,7.62
2018-02-07T20:30:23.763Z,2.20
2018-02-07T20:32:52.065Z,0.70
2018-02-07T20:35:20.362Z,0.70
2018-02-07T20:37:49.475Z,0.80
2018-02-07T20:40:18.574Z,0.70
2018-02-07T20:42:47.803Z,0.65
2018-02-07T20:45:16.550Z,4.57
2018-02-07T20:47:45.604Z,1.27
2018-02-07T20:50:14.724Z,0.60
2018-02-07T20:52:43.119Z,0.60
2018-02-07T20:55:12.186Z,0.70
2018-02-07T20:57:40.492Z,5.40
2018-02-07T21:00:09.541Z,0.70
2018-02-07T21:02:38.132Z,1.20
2018-02-07T21:05:06.491Z,0.97
2018-02-07T21:07:35.667Z,1.60
2018-02-07T21:10:04.769Z,1.25
2018-02-07T21:12:33.957Z,1.30
2018-02-07T21:15:03.857Z,1.70
2018-02-07T21:17:33.019Z,9.35
2018-02-07T21:20:01.661Z,0.60
2018-02-07T21:22:30.767Z,0.70
2018-02-07T21:24:59.050Z,0.70
2018-02-07T21:27:27.354Z,1.40
2018-02-07T21:29:55.637Z,0.60
2018-02-07T21:32:23.970Z,1.90
2018-02-07T21:34:53.004Z,1.55
2018-02-07T21:37:24.197Z,2.83
2018-02-07T21:39:53.435Z,4.37
2018-02-07T21:42:22.120Z,1.02
2018-02-07T21:44:50.401Z,1.98
2018-02-07T21:47:18.662Z,0.68
2018-02-07T21:49:47.545Z,1.55
2018-02-07T21:52:16.061Z,0.60
2018-02-07T21:54:44.523Z,0.60
2018-02-07T22:00:18.709Z,1.77
2018-02-07T22:02:52.625Z,1.10
2018-02-07T22:05:21.602Z,0.67
2018-02-07T22:12:24.635Z,13.70
2018-02-07T22:14:52.917Z,0.70
2018-02-07T22:17:21.314Z,0.60
2018-02-07T22:19:49.605Z,0.90
2018-02-07T22:22:18.968Z,0.70
2018-02-07T22:24:47.468Z,1.00
2018-02-07T22:27:15.745Z,0.80
2018-02-07T22:29:44.053Z,1.23
2018-02-07T22:32:13.091Z,2.35
2018-02-07T22:34:41.403Z,2.70
2018-02-07T22:37:09.667Z,0.80
2018-02-07T22:39:37.981Z,0.77
2018-02-07T22:42:06.391Z,3.63
2018-02-07T22:44:34.988Z,0.65
2018-02-07T22:47:03.261Z,0.60
2018-02-07T22:49:31.529Z,2.95
2018-02-07T22:51:59.863Z,2.80
2018-02-07T22:54:28.882Z,0.70
2018-02-07T22:56:57.185Z,1.67
2018-02-07T22:59:25.600Z,0.75
2018-02-07T23:01:54.175Z,1.70
2018-02-07T23:04:22.438Z,0.70
2018-02-07T23:06:50.708Z,4.27
2018-02-07T23:09:19.040Z,0.70
2018-02-07T23:11:47.342Z,2.40
2018-02-07T23:14:15.937Z,0.65
2018-02-07T23:16:44.213Z,2.20
2018-02-07T23:19:12.499Z,0.70
2018-02-07T23:21:40.820Z,3.30
2018-02-07T23:24:09.107Z,0.60
2018-02-07T23:26:37.415Z,1.90
2018-02-07T23:29:05.706Z,0.70
2018-02-07T23:31:34.027Z,1.73
2018-02-07T23:34:02.304Z,2.10
2018-02-07T23:36:30.878Z,4.30
2018-02-07T23:38:59.210Z,1.95
2018-02-07T23:41:28.256Z,1.03
2018-02-07T23:43:57.350Z,11.23
2018-02-07T23:46:25.631Z,0.80
2018-02-07T23:48:53.959Z,0.60
2018-02-07T23:51:22.242Z,1.57
2018-02-07T23:53:50.846Z,2.95
2018-02-07T23:56:19.120Z,1.57
2018-02-07T23:58:47.422Z,0.70
